sensor_id;sensor_type;location;lat;lon;timestamp;temperature;humidity
72106;SHT30;59975;47.646;18.318;2023-02-26T00:00:59;3.11;79.49
72106;SHT30;59975;47.646;18.318;2023-02-26T00:03:24;3.09;79.54
72106;SHT30;59975;47.646;18.318;2023-02-26T00:05:50;3.04;79.74
72106;SHT30;59975;47.646;18.318;2023-02-26T00:08:15;3.02;79.51
72106;SHT30;59975;47.646;18.318;2023-02-26T00:10:41;2.97;79.95
72106;SHT30;59975;47.646;18.318;2023-02-26T00:13:09;2.95;79.98
72106;SHT30;59975;47.646;18.318;2023-02-26T00:15:35;3.01;79.55
72106;SHT30;59975;47.646;18.318;2023-02-26T00:18:06;2.94;79.66
72106;SHT30;59975;47.646;18.318;2023-02-26T00:20:32;2.98;79.63
72106;SHT30;59975;47.646;18.318;2023-02-26T00:22:58;2.88;79.72
72106;SHT30;59975;47.646;18.318;2023-02-26T00:25:24;2.84;79.84
72106;SHT30;59975;47.646;18.318;2023-02-26T00:27:49;2.88;79.87
72106;SHT30;59975;47.646;18.318;2023-02-26T00:30:15;2.95;79.28
72106;SHT30;59975;47.646;18.318;2023-02-26T00:32:41;2.88;79.58
72106;SHT30;59975;47.646;18.318;2023-02-26T00:35:10;2.85;79.87
72106;SHT30;59975;47.646;18.318;2023-02-26T00:37:54;2.83;80.18
72106;SHT30;59975;47.646;18.318;2023-02-26T00:40:40;2.80;80.42
72106;SHT30;59975;47.646;18.318;2023-02-26T00:43:13;2.74;80.65
72106;SHT30;59975;47.646;18.318;2023-02-26T00:45:44;2.64;81.26
72106;SHT30;59975;47.646;18.318;2023-02-26T00:51:05;2.60;81.82
72106;SHT30;59975;47.646;18.318;2023-02-26T00:56:47;2.61;81.93
72106;SHT30;59975;47.646;18.318;2023-02-26T00:59:12;2.60;82.03
72106;SHT30;59975;47.646;18.318;2023-02-26T01:01:38;2.54;82.24
72106;SHT30;59975;47.646;18.318;2023-02-26T01:04:04;2.54;82.30
72106;SHT30;59975;47.646;18.318;2023-02-26T01:06:32;2.48;82.63
72106;SHT30;59975;47.646;18.318;2023-02-26T01:09:04;2.56;82.28
72106;SHT30;59975;47.646;18.318;2023-02-26T01:11:35;2.50;82.58
72106;SHT30;59975;47.646;18.318;2023-02-26T01:14:02;2.46;82.73
72106;SHT30;59975;47.646;18.318;2023-02-26T01:16:32;2.53;82.47
72106;SHT30;59975;47.646;18.318;2023-02-26T01:19:16;2.48;82.61
72106;SHT30;59975;47.646;18.318;2023-02-26T01:21:47;2.50;82.40
72106;SHT30;59975;47.646;18.318;2023-02-26T01:24:14;2.48;82.31
72106;SHT30;59975;47.646;18.318;2023-02-26T01:26:42;2.47;82.01
72106;SHT30;59975;47.646;18.318;2023-02-26T01:29:07;2.41;81.96
72106;SHT30;59975;47.646;18.318;2023-02-26T01:31:37;2.43;82.21
72106;SHT30;59975;47.646;18.318;2023-02-26T01:34:17;2.43;81.90
72106;SHT30;59975;47.646;18.318;2023-02-26T01:36:55;2.46;81.99
72106;SHT30;59975;47.646;18.318;2023-02-26T01:39:39;2.47;81.99
72106;SHT30;59975;47.646;18.318;2023-02-26T01:42:18;2.44;81.89
72106;SHT30;59975;47.646;18.318;2023-02-26T01:47:29;2.34;81.58
72106;SHT30;59975;47.646;18.318;2023-02-26T01:50:00;2.36;81.62
72106;SHT30;59975;47.646;18.318;2023-02-26T01:54:56;2.37;80.64
72106;SHT30;59975;47.646;18.318;2023-02-26T01:57:22;2.33;80.53
72106;SHT30;59975;47.646;18.318;2023-02-26T01:59:50;2.36;80.55
72106;SHT30;59975;47.646;18.318;2023-02-26T02:02:22;2.33;80.39
72106;SHT30;59975;47.646;18.318;2023-02-26T02:04:49;2.32;80.45
72106;SHT30;59975;47.646;18.318;2023-02-26T02:07:16;2.32;80.32
72106;SHT30;59975;47.646;18.318;2023-02-26T02:09:43;2.27;80.50
72106;SHT30;59975;47.646;18.318;2023-02-26T02:15:13;2.30;80.10
72106;SHT30;59975;47.646;18.318;2023-02-26T02:17:52;2.26;80.14
72106;SHT30;59975;47.646;18.318;2023-02-26T02:23:15;2.19;80.06
72106;SHT30;59975;47.646;18.318;2023-02-26T02:31:05;2.07;80.54
72106;SHT30;59975;47.646;18.318;2023-02-26T02:33:40;2.10;80.56
72106;SHT30;59975;47.646;18.318;2023-02-26T02:36:19;2.03;81.18
72106;SHT30;59975;47.646;18.318;2023-02-26T02:38:54;2.07;80.98
72106;SHT30;59975;47.646;18.318;2023-02-26T02:41:29;2.02;81.48
72106;SHT30;59975;47.646;18.318;2023-02-26T02:43:59;1.93;81.99
72106;SHT30;59975;47.646;18.318;2023-02-26T02:46:29;1.96;82.06
72106;SHT30;59975;47.646;18.318;2023-02-26T02:49:00;1.98;82.23
72106;SHT30;59975;47.646;18.318;2023-02-26T02:51:40;1.98;82.23
72106;SHT30;59975;47.646;18.318;2023-02-26T02:54:17;1.92;82.26
72106;SHT30;59975;47.646;18.318;2023-02-26T02:57:09;1.98;82.10
72106;SHT30;59975;47.646;18.318;2023-02-26T02:59:40;1.93;81.91
72106;SHT30;59975;47.646;18.318;2023-02-26T03:02:12;1.98;81.87
72106;SHT30;59975;47.646;18.318;2023-02-26T03:04:40;1.92;81.96
72106;SHT30;59975;47.646;18.318;2023-02-26T03:07:06;1.85;82.66
72106;SHT30;59975;47.646;18.318;2023-02-26T03:09:32;1.89;82.53
72106;SHT30;59975;47.646;18.318;2023-02-26T03:11:57;1.91;81.92
72106;SHT30;59975;47.646;18.318;2023-02-26T03:14:23;1.87;82.01
72106;SHT30;59975;47.646;18.318;2023-02-26T03:19:54;1.86;81.82
72106;SHT30;59975;47.646;18.318;2023-02-26T03:22:34;1.82;81.80
72106;SHT30;59975;47.646;18.318;2023-02-26T03:25:11;1.83;81.64
72106;SHT30;59975;47.646;18.318;2023-02-26T03:28:03;1.78;82.00
72106;SHT30;59975;47.646;18.318;2023-02-26T03:33:45;1.83;81.42
72106;SHT30;59975;47.646;18.318;2023-02-26T03:41:28;1.87;80.80
72106;SHT30;59975;47.646;18.318;2023-02-26T03:44:02;1.82;80.90
72106;SHT30;59975;47.646;18.318;2023-02-26T03:46:35;1.83;80.64
72106;SHT30;59975;47.646;18.318;2023-02-26T03:49:07;1.85;80.39
72106;SHT30;59975;47.646;18.318;2023-02-26T03:51:36;1.82;80.49
72106;SHT30;59975;47.646;18.318;2023-02-26T03:54:37;1.76;80.18
72106;SHT30;59975;47.646;18.318;2023-02-26T03:57:03;1.78;80.22
72106;SHT30;59975;47.646;18.318;2023-02-26T03:59:29;1.73;80.10
72106;SHT30;59975;47.646;18.318;2023-02-26T04:02:02;1.76;80.03
72106;SHT30;59975;47.646;18.318;2023-02-26T04:07:10;1.76;79.94
72106;SHT30;59975;47.646;18.318;2023-02-26T04:09:37;1.78;79.93
72106;SHT30;59975;47.646;18.318;2023-02-26T04:12:04;1.78;79.76
72106;SHT30;59975;47.646;18.318;2023-02-26T04:14:30;1.78;79.83
72106;SHT30;59975;47.646;18.318;2023-02-26T04:16:55;1.79;79.55
72106;SHT30;59975;47.646;18.318;2023-02-26T04:19:21;1.76;79.66
72106;SHT30;59975;47.646;18.318;2023-02-26T04:21:46;1.73;79.86
72106;SHT30;59975;47.646;18.318;2023-02-26T04:24:12;1.75;79.65
72106;SHT30;59975;47.646;18.318;2023-02-26T04:26:37;1.76;80.01
72106;SHT30;59975;47.646;18.318;2023-02-26T04:29:02;1.76;80.18
72106;SHT30;59975;47.646;18.318;2023-02-26T04:31:28;1.72;80.18
72106;SHT30;59975;47.646;18.318;2023-02-26T04:33:53;1.71;80.28
72106;SHT30;59975;47.646;18.318;2023-02-26T04:36:19;1.69;79.93
72106;SHT30;59975;47.646;18.318;2023-02-26T04:38:44;1.71;80.20
72106;SHT30;59975;47.646;18.318;2023-02-26T04:41:10;1.71;80.06
72106;SHT30;59975;47.646;18.318;2023-02-26T04:43:35;1.71;80.34
72106;SHT30;59975;47.646;18.318;2023-02-26T04:46:02;1.65;80.52
72106;SHT30;59975;47.646;18.318;2023-02-26T04:48:28;1.69;80.51
72106;SHT30;59975;47.646;18.318;2023-02-26T04:50:53;1.66;80.48
72106;SHT30;59975;47.646;18.318;2023-02-26T04:53:19;1.63;80.49
72106;SHT30;59975;47.646;18.318;2023-02-26T04:55:47;1.63;80.75
72106;SHT30;59975;47.646;18.318;2023-02-26T04:58:13;1.59;80.91
72106;SHT30;59975;47.646;18.318;2023-02-26T05:00:38;1.58;80.96
72106;SHT30;59975;47.646;18.318;2023-02-26T05:03:04;1.56;80.82
72106;SHT30;59975;47.646;18.318;2023-02-26T05:05:30;1.49;81.22
72106;SHT30;59975;47.646;18.318;2023-02-26T05:07:56;1.52;81.39
72106;SHT30;59975;47.646;18.318;2023-02-26T05:10:22;1.48;81.62
72106;SHT30;59975;47.646;18.318;2023-02-26T05:12:47;1.49;81.62
72106;SHT30;59975;47.646;18.318;2023-02-26T05:15:13;1.47;82.06
72106;SHT30;59975;47.646;18.318;2023-02-26T05:17:38;1.48;82.20
72106;SHT30;59975;47.646;18.318;2023-02-26T05:20:05;1.48;82.39
72106;SHT30;59975;47.646;18.318;2023-02-26T05:22:31;1.49;82.53
72106;SHT30;59975;47.646;18.318;2023-02-26T05:24:57;1.49;82.70
72106;SHT30;59975;47.646;18.318;2023-02-26T05:27:22;1.42;82.93
72106;SHT30;59975;47.646;18.318;2023-02-26T05:29:48;1.47;82.86
72106;SHT30;59975;47.646;18.318;2023-02-26T05:32:13;1.45;83.09
72106;SHT30;59975;47.646;18.318;2023-02-26T05:34:39;1.52;82.74
72106;SHT30;59975;47.646;18.318;2023-02-26T05:37:04;1.51;82.79
72106;SHT30;59975;47.646;18.318;2023-02-26T05:39:30;1.42;83.18
72106;SHT30;59975;47.646;18.318;2023-02-26T05:41:55;1.44;83.04
72106;SHT30;59975;47.646;18.318;2023-02-26T05:44:22;1.49;82.72
72106;SHT30;59975;47.646;18.318;2023-02-26T05:46:47;1.49;82.91
72106;SHT30;59975;47.646;18.318;2023-02-26T05:49:13;1.54;82.72
72106;SHT30;59975;47.646;18.318;2023-02-26T05:51:38;1.45;82.94
72106;SHT30;59975;47.646;18.318;2023-02-26T05:54:05;1.55;82.98
72106;SHT30;59975;47.646;18.318;2023-02-26T05:56:31;1.52;83.13
72106;SHT30;59975;47.646;18.318;2023-02-26T05:58:56;1.54;83.20
72106;SHT30;59975;47.646;18.318;2023-02-26T06:01:22;1.48;83.42
72106;SHT30;59975;47.646;18.318;2023-02-26T06:03:48;1.51;83.57
72106;SHT30;59975;47.646;18.318;2023-02-26T06:06:13;1.56;83.54
72106;SHT30;59975;47.646;18.318;2023-02-26T06:08:43;1.56;83.44
72106;SHT30;59975;47.646;18.318;2023-02-26T06:11:08;1.68;82.89
72106;SHT30;59975;47.646;18.318;2023-02-26T06:13:34;1.76;82.58
72106;SHT30;59975;47.646;18.318;2023-02-26T06:15:59;1.75;82.80
72106;SHT30;59975;47.646;18.318;2023-02-26T06:18:25;1.76;82.94
72106;SHT30;59975;47.646;18.318;2023-02-26T06:20:51;1.79;83.03
72106;SHT30;59975;47.646;18.318;2023-02-26T06:23:16;1.65;83.38
72106;SHT30;59975;47.646;18.318;2023-02-26T06:25:42;1.75;83.15
72106;SHT30;59975;47.646;18.318;2023-02-26T06:28:07;1.78;83.04
72106;SHT30;59975;47.646;18.318;2023-02-26T06:30:33;1.75;82.88
72106;SHT30;59975;47.646;18.318;2023-02-26T06:32:59;1.79;82.94
72106;SHT30;59975;47.646;18.318;2023-02-26T06:35:25;1.86;82.85
72106;SHT30;59975;47.646;18.318;2023-02-26T06:37:52;1.96;82.66
72106;SHT30;59975;47.646;18.318;2023-02-26T06:40:18;1.96;82.41
72106;SHT30;59975;47.646;18.318;2023-02-26T06:42:43;1.93;81.92
72106;SHT30;59975;47.646;18.318;2023-02-26T06:45:09;2.03;81.58
72106;SHT30;59975;47.646;18.318;2023-02-26T06:47:35;2.09;81.47
72106;SHT30;59975;47.646;18.318;2023-02-26T06:50:00;2.13;81.09
72106;SHT30;59975;47.646;18.318;2023-02-26T06:52:28;2.05;81.58
72106;SHT30;59975;47.646;18.318;2023-02-26T06:54:53;1.98;81.79
72106;SHT30;59975;47.646;18.318;2023-02-26T06:57:19;1.99;81.80
72106;SHT30;59975;47.646;18.318;2023-02-26T06:59:45;1.92;82.14
72106;SHT30;59975;47.646;18.318;2023-02-26T07:02:18;1.86;82.17
72106;SHT30;59975;47.646;18.318;2023-02-26T07:04:44;1.78;82.26
72106;SHT30;59975;47.646;18.318;2023-02-26T07:07:10;1.91;82.05
72106;SHT30;59975;47.646;18.318;2023-02-26T07:09:36;1.89;82.08
72106;SHT30;59975;47.646;18.318;2023-02-26T07:12:02;1.87;82.04
72106;SHT30;59975;47.646;18.318;2023-02-26T07:14:28;1.89;81.86
72106;SHT30;59975;47.646;18.318;2023-02-26T07:16:53;1.93;82.04
72106;SHT30;59975;47.646;18.318;2023-02-26T07:19:19;1.98;81.66
72106;SHT30;59975;47.646;18.318;2023-02-26T07:21:44;2.09;81.32
72106;SHT30;59975;47.646;18.318;2023-02-26T07:24:10;2.14;80.90
72106;SHT30;59975;47.646;18.318;2023-02-26T07:26:35;2.17;80.68
72106;SHT30;59975;47.646;18.318;2023-02-26T07:29:01;2.17;81.02
72106;SHT30;59975;47.646;18.318;2023-02-26T07:31:26;2.12;80.94
72106;SHT30;59975;47.646;18.318;2023-02-26T07:33:52;2.03;80.92
72106;SHT30;59975;47.646;18.318;2023-02-26T07:36:17;2.03;81.29
72106;SHT30;59975;47.646;18.318;2023-02-26T07:38:43;2.06;81.15
72106;SHT30;59975;47.646;18.318;2023-02-26T07:41:08;2.12;81.15
72106;SHT30;59975;47.646;18.318;2023-02-26T07:43:34;2.12;80.84
72106;SHT30;59975;47.646;18.318;2023-02-26T07:45:59;2.17;80.39
72106;SHT30;59975;47.646;18.318;2023-02-26T07:48:25;2.24;80.13
72106;SHT30;59975;47.646;18.318;2023-02-26T07:50:52;2.33;79.47
72106;SHT30;59975;47.646;18.318;2023-02-26T07:53:18;2.38;79.06
72106;SHT30;59975;47.646;18.318;2023-02-26T07:55:43;2.54;79.24
72106;SHT30;59975;47.646;18.318;2023-02-26T07:58:09;2.57;78.91
72106;SHT30;59975;47.646;18.318;2023-02-26T08:00:34;2.77;78.21
72106;SHT30;59975;47.646;18.318;2023-02-26T08:03:00;2.94;77.40
72106;SHT30;59975;47.646;18.318;2023-02-26T08:05:25;3.01;76.34
72106;SHT30;59975;47.646;18.318;2023-02-26T08:07:51;2.98;75.63
72106;SHT30;59975;47.646;18.318;2023-02-26T08:10:16;3.13;75.14
72106;SHT30;59975;47.646;18.318;2023-02-26T08:12:42;3.18;75.04
72106;SHT30;59975;47.646;18.318;2023-02-26T08:15:08;3.26;73.93
72106;SHT30;59975;47.646;18.318;2023-02-26T08:17:33;3.30;74.16
72106;SHT30;59975;47.646;18.318;2023-02-26T08:19:59;3.30;72.40
72106;SHT30;59975;47.646;18.318;2023-02-26T08:22:24;3.42;73.04
72106;SHT30;59975;47.646;18.318;2023-02-26T08:24:51;3.42;72.35
72106;SHT30;59975;47.646;18.318;2023-02-26T08:27:16;3.62;72.47
72106;SHT30;59975;47.646;18.318;2023-02-26T08:29:42;3.73;71.66
72106;SHT30;59975;47.646;18.318;2023-02-26T08:32:10;3.49;71.24
72106;SHT30;59975;47.646;18.318;2023-02-26T08:34:36;3.72;72.26
72106;SHT30;59975;47.646;18.318;2023-02-26T08:37:01;3.86;71.27
72106;SHT30;59975;47.646;18.318;2023-02-26T08:39:26;3.83;70.77
72106;SHT30;59975;47.646;18.318;2023-02-26T08:41:52;3.86;70.61
72106;SHT30;59975;47.646;18.318;2023-02-26T08:44:17;3.89;69.50
72106;SHT30;59975;47.646;18.318;2023-02-26T08:46:43;3.93;69.83
72106;SHT30;59975;47.646;18.318;2023-02-26T08:49:09;4.04;68.92
72106;SHT30;59975;47.646;18.318;2023-02-26T08:51:34;4.22;68.39
72106;SHT30;59975;47.646;18.318;2023-02-26T08:54:00;4.13;67.80
72106;SHT30;59975;47.646;18.318;2023-02-26T08:56:25;4.07;68.00
72106;SHT30;59975;47.646;18.318;2023-02-26T08:58:51;4.13;67.51
72106;SHT30;59975;47.646;18.318;2023-02-26T09:01:16;3.94;67.47
72106;SHT30;59975;47.646;18.318;2023-02-26T09:03:42;3.91;67.31
72106;SHT30;59975;47.646;18.318;2023-02-26T09:06:07;4.10;67.24
72106;SHT30;59975;47.646;18.318;2023-02-26T09:08:33;4.07;67.29
72106;SHT30;59975;47.646;18.318;2023-02-26T09:11:00;4.00;67.81
72106;SHT30;59975;47.646;18.318;2023-02-26T09:13:26;4.04;67.33
72106;SHT30;59975;47.646;18.318;2023-02-26T09:15:51;4.08;67.93
72106;SHT30;59975;47.646;18.318;2023-02-26T09:18:17;4.05;67.74
72106;SHT30;59975;47.646;18.318;2023-02-26T09:20:43;4.04;67.78
72106;SHT30;59975;47.646;18.318;2023-02-26T09:23:09;4.03;67.78
72106;SHT30;59975;47.646;18.318;2023-02-26T09:25:35;4.00;66.97
72106;SHT30;59975;47.646;18.318;2023-02-26T09:28:00;4.14;67.34
72106;SHT30;59975;47.646;18.318;2023-02-26T09:30:26;4.21;66.15
72106;SHT30;59975;47.646;18.318;2023-02-26T09:32:51;4.14;66.04
72106;SHT30;59975;47.646;18.318;2023-02-26T09:35:17;4.27;66.10
72106;SHT30;59975;47.646;18.318;2023-02-26T09:37:43;4.33;65.79
72106;SHT30;59975;47.646;18.318;2023-02-26T09:40:20;4.37;65.37
72106;SHT30;59975;47.646;18.318;2023-02-26T09:43:20;4.44;65.52
72106;SHT30;59975;47.646;18.318;2023-02-26T09:45:50;4.45;65.87
72106;SHT30;59975;47.646;18.318;2023-02-26T09:48:18;4.58;65.08
72106;SHT30;59975;47.646;18.318;2023-02-26T09:50:46;4.59;64.45
72106;SHT30;59975;47.646;18.318;2023-02-26T09:53:34;4.73;64.58
72106;SHT30;59975;47.646;18.318;2023-02-26T09:56:32;4.92;63.04
72106;SHT30;59975;47.646;18.318;2023-02-26T09:59:01;5.06;62.51
72106;SHT30;59975;47.646;18.318;2023-02-26T10:01:51;5.16;61.96
72106;SHT30;59975;47.646;18.318;2023-02-26T10:12:29;5.95;59.29
72106;SHT30;59975;47.646;18.318;2023-02-26T10:20:23;6.06;57.70
72106;SHT30;59975;47.646;18.318;2023-02-26T10:23:28;6.01;58.07
72106;SHT30;59975;47.646;18.318;2023-02-26T10:26:23;5.64;58.16
72106;SHT30;59975;47.646;18.318;2023-02-26T10:29:04;6.16;57.93
72106;SHT30;59975;47.646;18.318;2023-02-26T10:42:26;6.14;58.02
72106;SHT30;59975;47.646;18.318;2023-02-26T10:50:20;6.11;57.04
72106;SHT30;59975;47.646;18.318;2023-02-26T10:52:48;6.22;57.36
72106;SHT30;59975;47.646;18.318;2023-02-26T10:57:55;6.33;56.76
72106;SHT30;59975;47.646;18.318;2023-02-26T11:00:21;6.40;56.70
72106;SHT30;59975;47.646;18.318;2023-02-26T11:02:52;6.29;55.94
72106;SHT30;59975;47.646;18.318;2023-02-26T11:05:22;6.22;55.48
72106;SHT30;59975;47.646;18.318;2023-02-26T11:07:53;6.32;55.77
72106;SHT30;59975;47.646;18.318;2023-02-26T11:10:24;6.47;55.41
72106;SHT30;59975;47.646;18.318;2023-02-26T11:12:51;6.30;55.36
72106;SHT30;59975;47.646;18.318;2023-02-26T11:15:22;6.57;56.04
72106;SHT30;59975;47.646;18.318;2023-02-26T11:17:53;6.60;56.58
72106;SHT30;59975;47.646;18.318;2023-02-26T11:20:41;6.59;56.88
72106;SHT30;59975;47.646;18.318;2023-02-26T11:23:12;6.67;56.26
72106;SHT30;59975;47.646;18.318;2023-02-26T11:25:38;6.63;55.88
72106;SHT30;59975;47.646;18.318;2023-02-26T11:28:29;6.70;56.18
72106;SHT30;59975;47.646;18.318;2023-02-26T11:30:55;6.77;55.38
72106;SHT30;59975;47.646;18.318;2023-02-26T11:33:35;6.76;54.63
72106;SHT30;59975;47.646;18.318;2023-02-26T11:36:08;6.88;55.20
72106;SHT30;59975;47.646;18.318;2023-02-26T11:38:35;6.62;54.37
72106;SHT30;59975;47.646;18.318;2023-02-26T11:41:01;6.96;53.10
72106;SHT30;59975;47.646;18.318;2023-02-26T11:43:35;6.63;53.01
72106;SHT30;59975;47.646;18.318;2023-02-26T11:46:04;6.60;53.84
72106;SHT30;59975;47.646;18.318;2023-02-26T11:48:50;6.70;53.51
72106;SHT30;59975;47.646;18.318;2023-02-26T11:51:19;6.93;53.75
72106;SHT30;59975;47.646;18.318;2023-02-26T11:53:50;6.88;53.01
72106;SHT30;59975;47.646;18.318;2023-02-26T11:56:37;7.11;53.58
72106;SHT30;59975;47.646;18.318;2023-02-26T11:59:07;7.08;53.89
72106;SHT30;59975;47.646;18.318;2023-02-26T12:01:35;6.87;54.31
72106;SHT30;59975;47.646;18.318;2023-02-26T12:04:02;6.72;54.99
72106;SHT30;59975;47.646;18.318;2023-02-26T12:06:28;6.54;55.44
72106;SHT30;59975;47.646;18.318;2023-02-26T12:08:54;6.66;56.52
72106;SHT30;59975;47.646;18.318;2023-02-26T12:11:41;6.65;55.07
72106;SHT30;59975;47.646;18.318;2023-02-26T12:23:09;6.65;55.04
72106;SHT30;59975;47.646;18.318;2023-02-26T12:31:10;6.47;56.13
72106;SHT30;59975;47.646;18.318;2023-02-26T12:36:35;6.63;55.16
72106;SHT30;59975;47.646;18.318;2023-02-26T12:50:36;6.53;54.90
72106;SHT30;59975;47.646;18.318;2023-02-26T12:53:18;6.39;54.93
72106;SHT30;59975;47.646;18.318;2023-02-26T12:58:56;6.42;54.61
72106;SHT30;59975;47.646;18.318;2023-02-26T13:04:41;6.73;55.45
72106;SHT30;59975;47.646;18.318;2023-02-26T13:10:35;6.59;53.54
72106;SHT30;59975;47.646;18.318;2023-02-26T13:21:13;6.54;54.09
72106;SHT30;59975;47.646;18.318;2023-02-26T13:24:04;6.39;54.29
72106;SHT30;59975;47.646;18.318;2023-02-26T13:26:32;6.35;54.69
72106;SHT30;59975;47.646;18.318;2023-02-26T13:29:07;6.29;54.80
72106;SHT30;59975;47.646;18.318;2023-02-26T13:31:42;6.32;54.83
72106;SHT30;59975;47.646;18.318;2023-02-26T13:34:21;6.11;55.20
72106;SHT30;59975;47.646;18.318;2023-02-26T13:36:48;6.05;55.29
72106;SHT30;59975;47.646;18.318;2023-02-26T13:52:55;5.91;54.09
72106;SHT30;59975;47.646;18.318;2023-02-26T13:55:45;5.82;54.39
72106;SHT30;59975;47.646;18.318;2023-02-26T14:01:08;5.75;54.05
72106;SHT30;59975;47.646;18.318;2023-02-26T14:06:43;5.75;53.85
72106;SHT30;59975;47.646;18.318;2023-02-26T14:14:44;5.68;54.14
72106;SHT30;59975;47.646;18.318;2023-02-26T14:17:34;5.74;53.84
72106;SHT30;59975;47.646;18.318;2023-02-26T14:22:45;5.54;53.62
72106;SHT30;59975;47.646;18.318;2023-02-26T14:25:25;5.54;53.81
72106;SHT30;59975;47.646;18.318;2023-02-26T14:31:14;5.53;53.86
72106;SHT30;59975;47.646;18.318;2023-02-26T14:33:47;5.43;53.31
72106;SHT30;59975;47.646;18.318;2023-02-26T14:37:07;5.34;52.74
72106;SHT30;59975;47.646;18.318;2023-02-26T14:39:42;5.43;52.88
72106;SHT30;59975;47.646;18.318;2023-02-26T14:43:06;5.37;52.70
72106;SHT30;59975;47.646;18.318;2023-02-26T14:47:42;5.43;54.09
72106;SHT30;59975;47.646;18.318;2023-02-26T14:50:15;5.34;54.28
72106;SHT30;59975;47.646;18.318;2023-02-26T14:55:26;5.13;54.88
72106;SHT30;59975;47.646;18.318;2023-02-26T14:58:28;5.01;54.98
72106;SHT30;59975;47.646;18.318;2023-02-26T15:04:14;4.85;56.02
72106;SHT30;59975;47.646;18.318;2023-02-26T15:12:41;4.73;54.82
72106;SHT30;59975;47.646;18.318;2023-02-26T15:17:56;4.73;55.23
72106;SHT30;59975;47.646;18.318;2023-02-26T15:23:25;4.58;55.77
72106;SHT30;59975;47.646;18.318;2023-02-26T15:25:53;4.55;55.66
72106;SHT30;59975;47.646;18.318;2023-02-26T15:28:25;4.58;55.65
72106;SHT30;59975;47.646;18.318;2023-02-26T15:30:52;4.64;54.99
72106;SHT30;59975;47.646;18.318;2023-02-26T15:33:19;4.61;55.45
72106;SHT30;59975;47.646;18.318;2023-02-26T15:35:48;4.58;55.52
72106;SHT30;59975;47.646;18.318;2023-02-26T15:38:14;4.52;55.08
72106;SHT30;59975;47.646;18.318;2023-02-26T15:40:40;4.55;55.33
72106;SHT30;59975;47.646;18.318;2023-02-26T15:43:07;4.52;55.10
72106;SHT30;59975;47.646;18.318;2023-02-26T15:45:45;4.44;55.12
72106;SHT30;59975;47.646;18.318;2023-02-26T15:48:17;4.51;54.92
72106;SHT30;59975;47.646;18.318;2023-02-26T15:50:47;4.46;55.17
72106;SHT30;59975;47.646;18.318;2023-02-26T15:53:23;4.48;55.20
72106;SHT30;59975;47.646;18.318;2023-02-26T15:55:53;4.41;55.60
72106;SHT30;59975;47.646;18.318;2023-02-26T15:58:40;4.42;55.13
72106;SHT30;59975;47.646;18.318;2023-02-26T16:01:14;4.45;55.27
72106;SHT30;59975;47.646;18.318;2023-02-26T16:03:39;4.42;54.77
72106;SHT30;59975;47.646;18.318;2023-02-26T16:06:08;4.38;55.24
72106;SHT30;59975;47.646;18.318;2023-02-26T16:08:35;4.34;55.56
72106;SHT30;59975;47.646;18.318;2023-02-26T16:11:01;4.33;55.91
72106;SHT30;59975;47.646;18.318;2023-02-26T16:13:30;4.28;54.71
72106;SHT30;59975;47.646;18.318;2023-02-26T16:16:04;4.18;55.26
72106;SHT30;59975;47.646;18.318;2023-02-26T16:18:30;4.22;55.72
72106;SHT30;59975;47.646;18.318;2023-02-26T16:20:58;4.22;55.59
72106;SHT30;59975;47.646;18.318;2023-02-26T16:23:46;4.18;55.21
72106;SHT30;59975;47.646;18.318;2023-02-26T16:26:25;4.18;55.17
72106;SHT30;59975;47.646;18.318;2023-02-26T16:28:56;4.11;55.61
72106;SHT30;59975;47.646;18.318;2023-02-26T16:31:25;4.11;55.71
72106;SHT30;59975;47.646;18.318;2023-02-26T16:33:56;4.04;56.44
72106;SHT30;59975;47.646;18.318;2023-02-26T16:36:24;3.94;57.79
72106;SHT30;59975;47.646;18.318;2023-02-26T16:41:25;3.79;60.12
72106;SHT30;59975;47.646;18.318;2023-02-26T16:43:56;3.73;60.72
72106;SHT30;59975;47.646;18.318;2023-02-26T16:49:25;3.56;61.91
72106;SHT30;59975;47.646;18.318;2023-02-26T16:51:55;3.56;62.61
72106;SHT30;59975;47.646;18.318;2023-02-26T16:54:26;3.49;62.58
72106;SHT30;59975;47.646;18.318;2023-02-26T16:57:17;3.40;63.25
72106;SHT30;59975;47.646;18.318;2023-02-26T16:59:50;3.43;63.51
72106;SHT30;59975;47.646;18.318;2023-02-26T17:02:22;3.36;63.20
72106;SHT30;59975;47.646;18.318;2023-02-26T17:04:58;3.28;63.85
72106;SHT30;59975;47.646;18.318;2023-02-26T17:09:51;3.29;63.88
72106;SHT30;59975;47.646;18.318;2023-02-26T17:12:37;3.29;63.75
72106;SHT30;59975;47.646;18.318;2023-02-26T17:15:12;3.26;64.24
72106;SHT30;59975;47.646;18.318;2023-02-26T17:17:40;3.25;64.52
72106;SHT30;59975;47.646;18.318;2023-02-26T17:20:05;3.20;64.37
72106;SHT30;59975;47.646;18.318;2023-02-26T17:22:31;3.20;64.57
72106;SHT30;59975;47.646;18.318;2023-02-26T17:24:56;3.20;64.79
72106;SHT30;59975;47.646;18.318;2023-02-26T17:27:34;3.18;64.57
72106;SHT30;59975;47.646;18.318;2023-02-26T17:30:02;3.19;64.94
72106;SHT30;59975;47.646;18.318;2023-02-26T17:32:28;3.13;64.92
72106;SHT30;59975;47.646;18.318;2023-02-26T17:34:56;3.13;64.64
72106;SHT30;59975;47.646;18.318;2023-02-26T17:37:21;3.13;64.97
72106;SHT30;59975;47.646;18.318;2023-02-26T17:39:49;3.11;64.49
72106;SHT30;59975;47.646;18.318;2023-02-26T17:42:17;3.12;65.04
72106;SHT30;59975;47.646;18.318;2023-02-26T17:44:43;3.04;64.56
72106;SHT30;59975;47.646;18.318;2023-02-26T17:47:18;3.09;64.73
72106;SHT30;59975;47.646;18.318;2023-02-26T17:49:44;3.09;63.61
72106;SHT30;59975;47.646;18.318;2023-02-26T17:52:11;3.05;63.65
72106;SHT30;59975;47.646;18.318;2023-02-26T17:54:37;3.04;63.42
72106;SHT30;59975;47.646;18.318;2023-02-26T17:57:03;2.98;63.52
72106;SHT30;59975;47.646;18.318;2023-02-26T17:59:29;3.04;62.87
72106;SHT30;59975;47.646;18.318;2023-02-26T18:01:54;3.02;62.29
72106;SHT30;59975;47.646;18.318;2023-02-26T18:04:20;3.01;62.34
72106;SHT30;59975;47.646;18.318;2023-02-26T18:06:46;2.97;62.57
72106;SHT30;59975;47.646;18.318;2023-02-26T18:09:13;2.94;62.67
72106;SHT30;59975;47.646;18.318;2023-02-26T18:11:38;2.95;62.09
72106;SHT30;59975;47.646;18.318;2023-02-26T18:14:04;2.88;62.13
72106;SHT30;59975;47.646;18.318;2023-02-26T18:16:34;2.84;62.31
72106;SHT30;59975;47.646;18.318;2023-02-26T18:19:00;2.77;62.42
72106;SHT30;59975;47.646;18.318;2023-02-26T18:21:26;2.75;62.34
72106;SHT30;59975;47.646;18.318;2023-02-26T18:23:52;2.73;62.96
72106;SHT30;59975;47.646;18.318;2023-02-26T18:26:21;2.67;62.68
72106;SHT30;59975;47.646;18.318;2023-02-26T18:28:48;2.62;62.95
72106;SHT30;59975;47.646;18.318;2023-02-26T18:31:16;2.67;62.50
72106;SHT30;59975;47.646;18.318;2023-02-26T18:33:42;2.60;62.56
72106;SHT30;59975;47.646;18.318;2023-02-26T18:36:18;2.61;62.89
72106;SHT30;59975;47.646;18.318;2023-02-26T18:38:45;2.58;62.60
72106;SHT30;59975;47.646;18.318;2023-02-26T18:41:10;2.56;62.77